sensor_id;sensor_type;location;lat;lon;timestamp;temperature;humidity
12006;DHT22;6062;47.294;12.182;2022-10-16T00:01:10;10.30;69.00
12006;DHT22;6062;47.294;12.182;2022-10-16T00:03:40;10.30;69.00
12006;DHT22;6062;47.294;12.182;2022-10-16T00:06:08;10.30;69.00
12006;DHT22;6062;47.294;12.182;2022-10-16T00:08:36;10.30;69.00
12006;DHT22;6062;47.294;12.182;2022-10-16T00:11:27;10.20;68.80
12006;DHT22;6062;47.294;12.182;2022-10-16T00:13:58;10.20;68.80
12006;DHT22;6062;47.294;12.182;2022-10-16T00:16:26;10.20;68.70
12006;DHT22;6062;47.294;12.182;2022-10-16T00:18:53;10.20;68.70
12006;DHT22;6062;47.294;12.182;2022-10-16T00:21:23;10.20;68.70
12006;DHT22;6062;47.294;12.182;2022-10-16T00:23:52;10.20;69.00
12006;DHT22;6062;47.294;12.182;2022-10-16T00:26:19;10.20;68.90
12006;DHT22;6062;47.294;12.182;2022-10-16T00:28:49;10.10;68.80
12006;DHT22;6062;47.294;12.182;2022-10-16T00:31:17;10.10;68.90
12006;DHT22;6062;47.294;12.182;2022-10-16T00:33:45;10.10;68.90
12006;DHT22;6062;47.294;12.182;2022-10-16T00:36:13;10.10;69.00
12006;DHT22;6062;47.294;12.182;2022-10-16T00:38:41;10.10;69.00
12006;DHT22;6062;47.294;12.182;2022-10-16T00:41:11;10.10;68.90
12006;DHT22;6062;47.294;12.182;2022-10-16T00:43:42;10.10;69.00
12006;DHT22;6062;47.294;12.182;2022-10-16T00:46:39;10.10;69.10
12006;DHT22;6062;47.294;12.182;2022-10-16T00:49:15;10.10;69.20
12006;DHT22;6062;47.294;12.182;2022-10-16T00:51:45;10.10;69.30
12006;DHT22;6062;47.294;12.182;2022-10-16T00:54:21;10.10;69.30
12006;DHT22;6062;47.294;12.182;2022-10-16T00:56:50;10.10;69.40
12006;DHT22;6062;47.294;12.182;2022-10-16T01:01:52;10.10;69.40
12006;DHT22;6062;47.294;12.182;2022-10-16T01:04:18;10.20;69.40
12006;DHT22;6062;47.294;12.182;2022-10-16T01:12:58;10.20;69.20
12006;DHT22;6062;47.294;12.182;2022-10-16T01:15:37;10.20;69.10
12006;DHT22;6062;47.294;12.182;2022-10-16T01:21:29;10.20;69.10
12006;DHT22;6062;47.294;12.182;2022-10-16T01:27:15;10.20;69.10
12006;DHT22;6062;47.294;12.182;2022-10-16T01:33:02;10.20;69.20
12006;DHT22;6062;47.294;12.182;2022-10-16T01:35:38;10.20;69.50
12006;DHT22;6062;47.294;12.182;2022-10-16T01:38:19;10.30;69.60
12006;DHT22;6062;47.294;12.182;2022-10-16T01:40:56;10.30;69.80
12006;DHT22;6062;47.294;12.182;2022-10-16T01:43:31;10.30;69.80
12006;DHT22;6062;47.294;12.182;2022-10-16T01:46:01;10.40;69.90
12006;DHT22;6062;47.294;12.182;2022-10-16T01:48:29;10.40;69.80
12006;DHT22;6062;47.294;12.182;2022-10-16T01:51:05;10.40;69.80
12006;DHT22;6062;47.294;12.182;2022-10-16T01:53:34;10.50;69.70
12006;DHT22;6062;47.294;12.182;2022-10-16T01:56:02;10.50;69.30
12006;DHT22;6062;47.294;12.182;2022-10-16T01:58:34;10.60;69.10
12006;DHT22;6062;47.294;12.182;2022-10-16T02:01:04;10.50;69.00
12006;DHT22;6062;47.294;12.182;2022-10-16T02:03:37;10.50;68.80
12006;DHT22;6062;47.294;12.182;2022-10-16T02:06:06;10.50;68.60
12006;DHT22;6062;47.294;12.182;2022-10-16T02:08:33;10.50;68.40
12006;DHT22;6062;47.294;12.182;2022-10-16T02:11:00;10.40;68.30
12006;DHT22;6062;47.294;12.182;2022-10-16T02:13:37;10.40;68.40
12006;DHT22;6062;47.294;12.182;2022-10-16T02:16:09;10.30;68.50
12006;DHT22;6062;47.294;12.182;2022-10-16T02:18:36;10.30;68.60
12006;DHT22;6062;47.294;12.182;2022-10-16T02:21:22;10.20;68.50
12006;DHT22;6062;47.294;12.182;2022-10-16T02:29:39;10.10;68.80
12006;DHT22;6062;47.294;12.182;2022-10-16T02:32:15;10.10;68.80
12006;DHT22;6062;47.294;12.182;2022-10-16T02:34:46;10.00;68.90
12006;DHT22;6062;47.294;12.182;2022-10-16T02:37:14;10.00;69.10
12006;DHT22;6062;47.294;12.182;2022-10-16T02:39:41;10.00;69.10
12006;DHT22;6062;47.294;12.182;2022-10-16T02:42:14;9.90;69.20
12006;DHT22;6062;47.294;12.182;2022-10-16T02:44:40;9.90;69.50
12006;DHT22;6062;47.294;12.182;2022-10-16T02:47:06;9.90;69.50
12006;DHT22;6062;47.294;12.182;2022-10-16T02:49:32;9.90;69.70
12006;DHT22;6062;47.294;12.182;2022-10-16T02:51:57;9.90;69.80
12006;DHT22;6062;47.294;12.182;2022-10-16T02:54:23;9.80;69.90
12006;DHT22;6062;47.294;12.182;2022-10-16T02:56:49;9.80;69.90
12006;DHT22;6062;47.294;12.182;2022-10-16T02:59:15;9.80;69.90
12006;DHT22;6062;47.294;12.182;2022-10-16T03:01:41;9.80;69.90
12006;DHT22;6062;47.294;12.182;2022-10-16T03:04:07;9.80;70.00
12006;DHT22;6062;47.294;12.182;2022-10-16T03:06:33;9.80;70.00
12006;DHT22;6062;47.294;12.182;2022-10-16T03:09:00;9.80;70.20
12006;DHT22;6062;47.294;12.182;2022-10-16T03:11:25;9.80;70.20
12006;DHT22;6062;47.294;12.182;2022-10-16T03:13:51;9.80;70.30
12006;DHT22;6062;47.294;12.182;2022-10-16T03:16:17;9.70;70.10
12006;DHT22;6062;47.294;12.182;2022-10-16T03:18:43;9.80;70.90
12006;DHT22;6062;47.294;12.182;2022-10-16T03:21:08;9.80;70.30
12006;DHT22;6062;47.294;12.182;2022-10-16T03:23:34;9.70;70.40
12006;DHT22;6062;47.294;12.182;2022-10-16T03:26:00;9.70;70.40
12006;DHT22;6062;47.294;12.182;2022-10-16T03:28:25;9.70;70.40
12006;DHT22;6062;47.294;12.182;2022-10-16T03:30:51;9.80;70.50
12006;DHT22;6062;47.294;12.182;2022-10-16T03:33:17;9.70;70.50
12006;DHT22;6062;47.294;12.182;2022-10-16T03:35:42;9.70;70.50
12006;DHT22;6062;47.294;12.182;2022-10-16T03:38:08;9.70;70.50
12006;DHT22;6062;47.294;12.182;2022-10-16T03:40:33;9.80;70.50
12006;DHT22;6062;47.294;12.182;2022-10-16T03:42:59;9.80;70.60
12006;DHT22;6062;47.294;12.182;2022-10-16T03:45:25;9.80;70.80
12006;DHT22;6062;47.294;12.182;2022-10-16T03:47:52;9.80;70.80
12006;DHT22;6062;47.294;12.182;2022-10-16T03:50:18;9.80;70.80
12006;DHT22;6062;47.294;12.182;2022-10-16T03:52:43;9.80;70.60
12006;DHT22;6062;47.294;12.182;2022-10-16T03:55:09;9.80;71.10
12006;DHT22;6062;47.294;12.182;2022-10-16T03:57:35;9.80;70.20
12006;DHT22;6062;47.294;12.182;2022-10-16T04:00:00;9.90;70.20
12006;DHT22;6062;47.294;12.182;2022-10-16T04:02:26;9.90;70.10
12006;DHT22;6062;47.294;12.182;2022-10-16T04:04:52;9.80;70.00
12006;DHT22;6062;47.294;12.182;2022-10-16T04:07:17;9.80;69.90
12006;DHT22;6062;47.294;12.182;2022-10-16T04:09:43;9.80;69.80
12006;DHT22;6062;47.294;12.182;2022-10-16T04:12:09;9.80;69.80
12006;DHT22;6062;47.294;12.182;2022-10-16T04:14:34;9.80;69.90
12006;DHT22;6062;47.294;12.182;2022-10-16T04:17:00;9.80;70.00
12006;DHT22;6062;47.294;12.182;2022-10-16T04:19:26;9.70;69.90
12006;DHT22;6062;47.294;12.182;2022-10-16T04:21:51;9.70;70.00
12006;DHT22;6062;47.294;12.182;2022-10-16T04:24:17;9.70;70.10
12006;DHT22;6062;47.294;12.182;2022-10-16T04:26:43;9.70;70.10
12006;DHT22;6062;47.294;12.182;2022-10-16T04:29:08;9.70;70.10
12006;DHT22;6062;47.294;12.182;2022-10-16T04:31:34;9.70;70.00
12006;DHT22;6062;47.294;12.182;2022-10-16T04:34:00;9.70;69.90
12006;DHT22;6062;47.294;12.182;2022-10-16T04:36:25;9.70;69.90
12006;DHT22;6062;47.294;12.182;2022-10-16T04:38:51;9.70;69.90
12006;DHT22;6062;47.294;12.182;2022-10-16T04:41:17;9.70;69.80
12006;DHT22;6062;47.294;12.182;2022-10-16T04:43:42;9.70;69.80
12006;DHT22;6062;47.294;12.182;2022-10-16T04:46:08;9.70;69.70
12006;DHT22;6062;47.294;12.182;2022-10-16T04:48:35;9.60;69.50
12006;DHT22;6062;47.294;12.182;2022-10-16T04:51:01;9.60;69.40
12006;DHT22;6062;47.294;12.182;2022-10-16T04:53:26;9.60;69.40
12006;DHT22;6062;47.294;12.182;2022-10-16T04:55:52;9.60;69.30
12006;DHT22;6062;47.294;12.182;2022-10-16T04:58:18;9.60;69.40
12006;DHT22;6062;47.294;12.182;2022-10-16T05:00:44;9.50;69.30
12006;DHT22;6062;47.294;12.182;2022-10-16T05:03:11;9.50;69.30
12006;DHT22;6062;47.294;12.182;2022-10-16T05:05:42;9.50;69.40
12006;DHT22;6062;47.294;12.182;2022-10-16T05:08:10;9.50;69.50
12006;DHT22;6062;47.294;12.182;2022-10-16T05:10:36;9.40;69.40
12006;DHT22;6062;47.294;12.182;2022-10-16T05:13:02;9.40;69.50
12006;DHT22;6062;47.294;12.182;2022-10-16T05:15:28;9.40;69.50
12006;DHT22;6062;47.294;12.182;2022-10-16T05:17:54;9.40;69.50
12006;DHT22;6062;47.294;12.182;2022-10-16T05:20:21;9.40;69.50
12006;DHT22;6062;47.294;12.182;2022-10-16T05:22:47;9.40;69.30
12006;DHT22;6062;47.294;12.182;2022-10-16T05:25:13;9.40;69.20
12006;DHT22;6062;47.294;12.182;2022-10-16T05:27:39;9.40;69.20
12006;DHT22;6062;47.294;12.182;2022-10-16T05:30:05;9.40;69.20
12006;DHT22;6062;47.294;12.182;2022-10-16T05:32:31;9.40;69.20
12006;DHT22;6062;47.294;12.182;2022-10-16T05:34:57;9.40;69.20
12006;DHT22;6062;47.294;12.182;2022-10-16T05:37:25;9.40;69.00
12006;DHT22;6062;47.294;12.182;2022-10-16T05:39:52;9.40;69.00
12006;DHT22;6062;47.294;12.182;2022-10-16T05:42:18;9.40;69.00
12006;DHT22;6062;47.294;12.182;2022-10-16T05:44:44;9.40;69.10
12006;DHT22;6062;47.294;12.182;2022-10-16T05:47:10;9.40;69.10
12006;DHT22;6062;47.294;12.182;2022-10-16T05:49:38;9.50;69.20
12006;DHT22;6062;47.294;12.182;2022-10-16T05:52:03;9.50;69.70
12006;DHT22;6062;47.294;12.182;2022-10-16T05:54:29;9.60;71.00
12006;DHT22;6062;47.294;12.182;2022-10-16T05:56:55;9.70;72.40
12006;DHT22;6062;47.294;12.182;2022-10-16T05:59:20;10.00;73.80
12006;DHT22;6062;47.294;12.182;2022-10-16T06:01:46;10.30;74.80
12006;DHT22;6062;47.294;12.182;2022-10-16T06:04:12;10.80;75.20
12006;DHT22;6062;47.294;12.182;2022-10-16T06:06:37;11.20;74.30
12006;DHT22;6062;47.294;12.182;2022-10-16T06:09:03;11.70;72.60
12006;DHT22;6062;47.294;12.182;2022-10-16T06:11:32;12.20;71.50
12006;DHT22;6062;47.294;12.182;2022-10-16T06:14:00;12.70;70.10
12006;DHT22;6062;47.294;12.182;2022-10-16T06:16:28;13.20;69.50
12006;DHT22;6062;47.294;12.182;2022-10-16T06:18:55;13.60;69.20
12006;DHT22;6062;47.294;12.182;2022-10-16T06:21:26;14.10;68.90
12006;DHT22;6062;47.294;12.182;2022-10-16T06:23:54;14.60;68.00
12006;DHT22;6062;47.294;12.182;2022-10-16T06:26:24;15.10;67.50
12006;DHT22;6062;47.294;12.182;2022-10-16T06:28:54;15.70;67.10
12006;DHT22;6062;47.294;12.182;2022-10-16T06:31:21;16.30;66.20
12006;DHT22;6062;47.294;12.182;2022-10-16T06:33:50;16.90;65.90
12006;DHT22;6062;47.294;12.182;2022-10-16T06:36:17;17.50;63.30
12006;DHT22;6062;47.294;12.182;2022-10-16T06:38:44;18.20;62.80
12006;DHT22;6062;47.294;12.182;2022-10-16T06:41:16;18.80;61.00
12006;DHT22;6062;47.294;12.182;2022-10-16T06:43:44;19.30;58.30
12006;DHT22;6062;47.294;12.182;2022-10-16T06:46:14;19.80;58.10
12006;DHT22;6062;47.294;12.182;2022-10-16T06:48:43;20.20;56.40
12006;DHT22;6062;47.294;12.182;2022-10-16T06:51:11;20.60;56.00
12006;DHT22;6062;47.294;12.182;2022-10-16T06:53:49;21.00;55.40
12006;DHT22;6062;47.294;12.182;2022-10-16T06:56:22;21.60;54.10
12006;DHT22;6062;47.294;12.182;2022-10-16T06:58:49;22.10;53.00
12006;DHT22;6062;47.294;12.182;2022-10-16T07:01:19;22.50;52.50
12006;DHT22;6062;47.294;12.182;2022-10-16T07:03:47;23.00;51.90
12006;DHT22;6062;47.294;12.182;2022-10-16T07:06:16;23.50;51.10
12006;DHT22;6062;47.294;12.182;2022-10-16T07:08:46;24.00;49.90
12006;DHT22;6062;47.294;12.182;2022-10-16T07:11:18;24.40;49.20
12006;DHT22;6062;47.294;12.182;2022-10-16T07:13:46;24.90;48.20
12006;DHT22;6062;47.294;12.182;2022-10-16T07:16:16;25.40;47.00
12006;DHT22;6062;47.294;12.182;2022-10-16T07:18:44;25.80;46.20
12006;DHT22;6062;47.294;12.182;2022-10-16T07:21:17;26.20;43.10
12006;DHT22;6062;47.294;12.182;2022-10-16T07:23:45;26.60;41.40
12006;DHT22;6062;47.294;12.182;2022-10-16T07:26:11;26.80;41.00
12006;DHT22;6062;47.294;12.182;2022-10-16T07:28:38;26.90;40.30
12006;DHT22;6062;47.294;12.182;2022-10-16T07:31:07;27.00;38.70
12006;DHT22;6062;47.294;12.182;2022-10-16T07:33:36;27.00;38.40
12006;DHT22;6062;47.294;12.182;2022-10-16T07:36:04;27.00;37.90
12006;DHT22;6062;47.294;12.182;2022-10-16T07:38:30;26.90;38.80
12006;DHT22;6062;47.294;12.182;2022-10-16T07:41:01;26.90;38.10
12006;DHT22;6062;47.294;12.182;2022-10-16T07:43:29;26.90;37.70
12006;DHT22;6062;47.294;12.182;2022-10-16T07:45:55;26.80;38.70
12006;DHT22;6062;47.294;12.182;2022-10-16T07:48:22;26.80;39.20
12006;DHT22;6062;47.294;12.182;2022-10-16T07:50:49;26.90;39.30
12006;DHT22;6062;47.294;12.182;2022-10-16T07:53:14;27.00;38.50
12006;DHT22;6062;47.294;12.182;2022-10-16T07:55:40;27.10;38.20
12006;DHT22;6062;47.294;12.182;2022-10-16T07:58:06;27.10;37.50
12006;DHT22;6062;47.294;12.182;2022-10-16T08:00:33;27.20;37.80
12006;DHT22;6062;47.294;12.182;2022-10-16T08:02:59;27.40;37.40
12006;DHT22;6062;47.294;12.182;2022-10-16T08:05:27;27.70;36.50
12006;DHT22;6062;47.294;12.182;2022-10-16T08:07:57;27.90;36.50
12006;DHT22;6062;47.294;12.182;2022-10-16T08:10:25;28.20;35.00
12006;DHT22;6062;47.294;12.182;2022-10-16T08:12:52;28.60;34.60
12006;DHT22;6062;47.294;12.182;2022-10-16T08:15:19;29.00;34.90
12006;DHT22;6062;47.294;12.182;2022-10-16T08:17:54;29.30;33.70
12006;DHT22;6062;47.294;12.182;2022-10-16T08:20:21;29.70;33.20
12006;DHT22;6062;47.294;12.182;2022-10-16T08:22:47;30.10;33.50
12006;DHT22;6062;47.294;12.182;2022-10-16T08:25:12;30.40;32.90
12006;DHT22;6062;47.294;12.182;2022-10-16T08:27:38;30.80;31.90
12006;DHT22;6062;47.294;12.182;2022-10-16T08:30:04;31.20;31.60
12006;DHT22;6062;47.294;12.182;2022-10-16T08:32:30;31.60;30.40
12006;DHT22;6062;47.294;12.182;2022-10-16T08:34:56;31.90;30.00
12006;DHT22;6062;47.294;12.182;2022-10-16T08:37:21;32.10;29.50
12006;DHT22;6062;47.294;12.182;2022-10-16T08:39:47;32.40;29.60
12006;DHT22;6062;47.294;12.182;2022-10-16T08:45:21;32.90;28.90
12006;DHT22;6062;47.294;12.182;2022-10-16T08:48:26;33.20;28.20
12006;DHT22;6062;47.294;12.182;2022-10-16T08:50:55;33.40;27.80
12006;DHT22;6062;47.294;12.182;2022-10-16T08:53:30;33.70;27.90
12006;DHT22;6062;47.294;12.182;2022-10-16T08:56:00;33.90;27.70
12006;DHT22;6062;47.294;12.182;2022-10-16T08:58:29;34.20;27.30
12006;DHT22;6062;47.294;12.182;2022-10-16T09:01:01;34.40;26.20
12006;DHT22;6062;47.294;12.182;2022-10-16T09:03:47;34.60;25.50
12006;DHT22;6062;47.294;12.182;2022-10-16T09:09:41;34.60;25.10
12006;DHT22;6062;47.294;12.182;2022-10-16T09:12:50;34.50;25.30
12006;DHT22;6062;47.294;12.182;2022-10-16T09:15:39;34.50;25.40
12006;DHT22;6062;47.294;12.182;2022-10-16T09:18:27;34.60;25.30
12006;DHT22;6062;47.294;12.182;2022-10-16T09:21:14;34.70;24.80
12006;DHT22;6062;47.294;12.182;2022-10-16T09:23:45;34.90;25.00
12006;DHT22;6062;47.294;12.182;2022-10-16T09:26:14;34.90;25.50
12006;DHT22;6062;47.294;12.182;2022-10-16T09:28:41;34.90;25.00
12006;DHT22;6062;47.294;12.182;2022-10-16T09:31:19;34.90;24.60
12006;DHT22;6062;47.294;12.182;2022-10-16T09:33:53;34.80;24.40
12006;DHT22;6062;47.294;12.182;2022-10-16T09:36:23;34.80;25.80
12006;DHT22;6062;47.294;12.182;2022-10-16T09:39:03;34.60;25.30
12006;DHT22;6062;47.294;12.182;2022-10-16T09:41:33;34.20;25.60
12006;DHT22;6062;47.294;12.182;2022-10-16T09:44:02;33.70;25.80
12006;DHT22;6062;47.294;12.182;2022-10-16T09:46:33;33.10;26.40
12006;DHT22;6062;47.294;12.182;2022-10-16T09:49:03;32.40;27.00
12006;DHT22;6062;47.294;12.182;2022-10-16T09:51:35;31.80;27.90
12006;DHT22;6062;47.294;12.182;2022-10-16T09:54:14;31.20;28.10
12006;DHT22;6062;47.294;12.182;2022-10-16T09:56:42;30.70;29.10
12006;DHT22;6062;47.294;12.182;2022-10-16T09:59:28;30.20;29.70
12006;DHT22;6062;47.294;12.182;2022-10-16T10:02:00;30.00;30.80
12006;DHT22;6062;47.294;12.182;2022-10-16T10:04:42;30.00;30.70
12006;DHT22;6062;47.294;12.182;2022-10-16T10:07:19;30.00;31.20
12006;DHT22;6062;47.294;12.182;2022-10-16T10:09:49;30.10;31.40
12006;DHT22;6062;47.294;12.182;2022-10-16T10:12:33;30.20;31.20
12006;DHT22;6062;47.294;12.182;2022-10-16T10:15:12;30.20;30.90
12006;DHT22;6062;47.294;12.182;2022-10-16T10:17:47;30.10;31.10
12006;DHT22;6062;47.294;12.182;2022-10-16T10:20:30;29.80;30.00
12006;DHT22;6062;47.294;12.182;2022-10-16T10:23:01;29.50;30.10
12006;DHT22;6062;47.294;12.182;2022-10-16T10:26:31;29.10;30.50
12006;DHT22;6062;47.294;12.182;2022-10-16T10:32:03;28.60;32.10
12006;DHT22;6062;47.294;12.182;2022-10-16T10:37:37;28.50;32.00
12006;DHT22;6062;47.294;12.182;2022-10-16T10:43:15;28.50;32.80
12006;DHT22;6062;47.294;12.182;2022-10-16T10:45:48;28.60;32.30
12006;DHT22;6062;47.294;12.182;2022-10-16T10:48:32;28.70;32.50
12006;DHT22;6062;47.294;12.182;2022-10-16T10:54:38;29.10;31.40
12006;DHT22;6062;47.294;12.182;2022-10-16T11:02:58;28.90;30.20
12006;DHT22;6062;47.294;12.182;2022-10-16T11:05:50;28.70;30.00
12006;DHT22;6062;47.294;12.182;2022-10-16T11:08:38;28.30;30.10
12006;DHT22;6062;47.294;12.182;2022-10-16T11:11:29;27.90;30.20
12006;DHT22;6062;47.294;12.182;2022-10-16T11:14:26;27.40;30.50
12006;DHT22;6062;47.294;12.182;2022-10-16T11:17:22;27.00;31.00
12006;DHT22;6062;47.294;12.182;2022-10-16T11:22:43;25.90;32.80
12006;DHT22;6062;47.294;12.182;2022-10-16T11:28:01;25.10;34.50
12006;DHT22;6062;47.294;12.182;2022-10-16T11:33:31;24.40;36.10
12006;DHT22;6062;47.294;12.182;2022-10-16T11:38:48;23.60;37.60
12006;DHT22;6062;47.294;12.182;2022-10-16T11:41:27;23.30;38.60
12006;DHT22;6062;47.294;12.182;2022-10-16T11:46:40;22.90;39.10
12006;DHT22;6062;47.294;12.182;2022-10-16T11:49:16;22.70;39.60
12006;DHT22;6062;47.294;12.182;2022-10-16T11:51:56;22.50;40.40
12006;DHT22;6062;47.294;12.182;2022-10-16T11:54:51;22.10;40.70
12006;DHT22;6062;47.294;12.182;2022-10-16T11:57:33;21.80;41.50
12006;DHT22;6062;47.294;12.182;2022-10-16T12:00:26;21.50;42.70
12006;DHT22;6062;47.294;12.182;2022-10-16T12:03:21;21.30;43.10
12006;DHT22;6062;47.294;12.182;2022-10-16T12:08:59;20.80;43.90
12006;DHT22;6062;47.294;12.182;2022-10-16T12:14:03;20.40;44.80
12006;DHT22;6062;47.294;12.182;2022-10-16T12:19:21;19.90;45.40
12006;DHT22;6062;47.294;12.182;2022-10-16T12:21:49;19.60;46.10
12006;DHT22;6062;47.294;12.182;2022-10-16T12:24:38;19.40;46.70
12006;DHT22;6062;47.294;12.182;2022-10-16T12:27:24;19.20;46.80
12006;DHT22;6062;47.294;12.182;2022-10-16T12:30:04;19.00;47.00
12006;DHT22;6062;47.294;12.182;2022-10-16T12:32:34;18.90;47.60
12006;DHT22;6062;47.294;12.182;2022-10-16T12:35:03;18.70;47.90
12006;DHT22;6062;47.294;12.182;2022-10-16T12:37:36;18.60;48.50
12006;DHT22;6062;47.294;12.182;2022-10-16T12:40:15;18.40;49.00
12006;DHT22;6062;47.294;12.182;2022-10-16T12:42:50;18.30;48.60
12006;DHT22;6062;47.294;12.182;2022-10-16T12:45:33;18.20;49.20
12006;DHT22;6062;47.294;12.182;2022-10-16T12:48:01;18.10;49.40
12006;DHT22;6062;47.294;12.182;2022-10-16T12:50:35;18.00;49.50
12006;DHT22;6062;47.294;12.182;2022-10-16T12:53:17;17.90;49.70
12006;DHT22;6062;47.294;12.182;2022-10-16T12:55:57;17.70;49.50
12006;DHT22;6062;47.294;12.182;2022-10-16T12:58:46;17.70;50.30
12006;DHT22;6062;47.294;12.182;2022-10-16T13:04:29;17.50;50.70
12006;DHT22;6062;47.294;12.182;2022-10-16T13:07:20;17.40;50.70
12006;DHT22;6062;47.294;12.182;2022-10-16T13:16:23;17.30;50.90
12006;DHT22;6062;47.294;12.182;2022-10-16T13:27:51;17.40;51.00
12006;DHT22;6062;47.294;12.182;2022-10-16T13:30:30;17.40;51.10
12006;DHT22;6062;47.294;12.182;2022-10-16T13:33:16;17.40;51.00
12006;DHT22;6062;47.294;12.182;2022-10-16T13:35:53;17.40;51.00
12006;DHT22;6062;47.294;12.182;2022-10-16T13:38:23;17.40;50.80
12006;DHT22;6062;47.294;12.182;2022-10-16T13:43:28;17.30;50.90
12006;DHT22;6062;47.294;12.182;2022-10-16T13:46:05;17.30;51.00
12006;DHT22;6062;47.294;12.182;2022-10-16T13:48:33;17.30;50.60
12006;DHT22;6062;47.294;12.182;2022-10-16T13:51:05;17.20;50.60
12006;DHT22;6062;47.294;12.182;2022-10-16T13:53:34;17.20;50.60
12006;DHT22;6062;47.294;12.182;2022-10-16T13:56:03;17.20;50.60
12006;DHT22;6062;47.294;12.182;2022-10-16T13:58:31;17.20;50.60
12006;DHT22;6062;47.294;12.182;2022-10-16T14:00:59;17.20;50.50
12006;DHT22;6062;47.294;12.182;2022-10-16T14:03:27;17.20;50.40
12006;DHT22;6062;47.294;12.182;2022-10-16T14:06:06;17.20;50.50
12006;DHT22;6062;47.294;12.182;2022-10-16T14:08:43;17.20;50.90
12006;DHT22;6062;47.294;12.182;2022-10-16T14:11:11;17.20;50.40
12006;DHT22;6062;47.294;12.182;2022-10-16T14:13:39;17.20;50.50
12006;DHT22;6062;47.294;12.182;2022-10-16T14:16:15;17.10;50.70
12006;DHT22;6062;47.294;12.182;2022-10-16T14:18:46;17.10;50.60
12006;DHT22;6062;47.294;12.182;2022-10-16T14:21:20;17.10;51.10
12006;DHT22;6062;47.294;12.182;2022-10-16T14:23:46;17.10;51.20
12006;DHT22;6062;47.294;12.182;2022-10-16T14:26:14;17.00;51.20
12006;DHT22;6062;47.294;12.182;2022-10-16T14:28:43;17.10;51.10
12006;DHT22;6062;47.294;12.182;2022-10-16T14:31:31;17.00;51.20
12006;DHT22;6062;47.294;12.182;2022-10-16T14:33:58;17.00;51.40
12006;DHT22;6062;47.294;12.182;2022-10-16T14:36:26;17.10;51.50
12006;DHT22;6062;47.294;12.182;2022-10-16T14:41:48;17.10;51.40
12006;DHT22;6062;47.294;12.182;2022-10-16T14:44:17;17.10;51.50
12006;DHT22;6062;47.294;12.182;2022-10-16T14:46:44;17.10;51.50
12006;DHT22;6062;47.294;12.182;2022-10-16T14:51:37;17.10;51.30
12006;DHT22;6062;47.294;12.182;2022-10-16T14:54:08;17.10;51.20
12006;DHT22;6062;47.294;12.182;2022-10-16T14:59:20;17.10;51.10
12006;DHT22;6062;47.294;12.182;2022-10-16T15:01:49;17.00;51.00
12006;DHT22;6062;47.294;12.182;2022-10-16T15:04:15;17.00;51.10
12006;DHT22;6062;47.294;12.182;2022-10-16T15:06:41;17.00;51.30
12006;DHT22;6062;47.294;12.182;2022-10-16T15:09:07;16.90;51.40
12006;DHT22;6062;47.294;12.182;2022-10-16T15:11:33;16.80;51.60
12006;DHT22;6062;47.294;12.182;2022-10-16T15:13:59;16.80;51.80
12006;DHT22;6062;47.294;12.182;2022-10-16T15:16:25;16.70;52.10
12006;DHT22;6062;47.294;12.182;2022-10-16T15:18:51;16.60;52.30
12006;DHT22;6062;47.294;12.182;2022-10-16T15:21:25;16.60;52.40
12006;DHT22;6062;47.294;12.182;2022-10-16T15:23:53;16.50;52.40
12006;DHT22;6062;47.294;12.182;2022-10-16T15:26:19;16.40;52.50
12006;DHT22;6062;47.294;12.182;2022-10-16T15:28:45;16.40;52.70
12006;DHT22;6062;47.294;12.182;2022-10-16T15:31:10;16.30;52.80
12006;DHT22;6062;47.294;12.182;2022-10-16T15:33:36;16.20;53.10
12006;DHT22;6062;47.294;12.182;2022-10-16T15:36:02;16.20;53.50
12006;DHT22;6062;47.294;12.182;2022-10-16T15:38:29;16.10;53.80
12006;DHT22;6062;47.294;12.182;2022-10-16T15:40:55;16.00;54.10
12006;DHT22;6062;47.294;12.182;2022-10-16T15:43:22;16.00;54.10
12006;DHT22;6062;47.294;12.182;2022-10-16T15:46:09;15.90;54.20
12006;DHT22;6062;47.294;12.182;2022-10-16T15:48:37;15.80;54.40
12006;DHT22;6062;47.294;12.182;2022-10-16T15:51:07;15.80;54.30
12006;DHT22;6062;47.294;12.182;2022-10-16T15:53:33;15.70;54.60
12006;DHT22;6062;47.294;12.182;2022-10-16T15:56:03;15.60;54.50
12006;DHT22;6062;47.294;12.182;2022-10-16T15:58:30;15.60;55.00
12006;DHT22;6062;47.294;12.182;2022-10-16T16:00:56;15.50;54.90
12006;DHT22;6062;47.294;12.182;2022-10-16T16:03:25;15.40;55.00
12006;DHT22;6062;47.294;12.182;2022-10-16T16:05:51;15.40;55.10
12006;DHT22;6062;47.294;12.182;2022-10-16T16:08:17;15.30;55.40
12006;DHT22;6062;47.294;12.182;2022-10-16T16:10:42;15.20;55.50
12006;DHT22;6062;47.294;12.182;2022-10-16T16:13:08;15.10;55.70
12006;DHT22;6062;47.294;12.182;2022-10-16T16:15:34;15.00;55.70
12006;DHT22;6062;47.294;12.182;2022-10-16T16:17:59;14.90;55.90
12006;DHT22;6062;47.294;12.182;2022-10-16T16:20:27;14.90;56.00
12006;DHT22;6062;47.294;12.182;2022-10-16T16:22:53;14.80;56.10
12006;DHT22;6062;47.294;12.182;2022-10-16T16:25:19;14.70;56.10
12006;DHT22;6062;47.294;12.182;2022-10-16T16:27:44;14.60;56.10
12006;DHT22;6062;47.294;12.182;2022-10-16T16:30:11;14.60;56.20
12006;DHT22;6062;47.294;12.182;2022-10-16T16:32:37;14.50;56.40
12006;DHT22;6062;47.294;12.182;2022-10-16T16:35:03;14.40;56.40
12006;DHT22;6062;47.294;12.182;2022-10-16T16:37:30;14.40;56.70
12006;DHT22;6062;47.294;12.182;2022-10-16T16:39:56;14.30;56.50
12006;DHT22;6062;47.294;12.182;2022-10-16T16:42:27;14.20;56.70
12006;DHT22;6062;47.294;12.182;2022-10-16T16:44:53;14.10;56.80
12006;DHT22;6062;47.294;12.182;2022-10-16T16:47:19;14.00;56.90
12006;DHT22;6062;47.294;12.182;2022-10-16T16:49:44;14.00;57.20
12006;DHT22;6062;47.294;12.182;2022-10-16T16:52:12;13.90;57.20
12006;DHT22;6062;47.294;12.182;2022-10-16T16:54:38;13.80;57.40
12006;DHT22;6062;47.294;12.182;2022-10-16T16:57:04;13.70;57.50
12006;DHT22;6062;47.294;12.182;2022-10-16T16:59:30;13.60;57.60
12006;DHT22;6062;47.294;12.182;2022-10-16T17:01:58;13.60;57.70
12006;DHT22;6062;47.294;12.182;2022-10-16T17:04:25;13.50;58.00
12006;DHT22;6062;47.294;12.182;2022-10-16T17:06:53;13.40;58.10
12006;DHT22;6062;47.294;12.182;2022-10-16T17:09:20;13.40;58.30
12006;DHT22;6062;47.294;12.182;2022-10-16T17:11:45;13.30;58.20
12006;DHT22;6062;47.294;12.182;2022-10-16T17:14:13;13.30;58.30
12006;DHT22;6062;47.294;12.182;2022-10-16T17:16:40;13.20;58.30
12006;DHT22;6062;47.294;12.182;2022-10-16T17:19:17;13.20;58.40
12006;DHT22;6062;47.294;12.182;2022-10-16T17:21:44;13.20;58.60
12006;DHT22;6062;47.294;12.182;2022-10-16T17:24:10;13.10;58.50
12006;DHT22;6062;47.294;12.182;2022-10-16T17:26:37;13.10;58.50
12006;DHT22;6062;47.294;12.182;2022-10-16T17:29:05;13.10;58.50
12006;DHT22;6062;47.294;12.182;2022-10-16T17:31:33;13.00;58.30
12006;DHT22;6062;47.294;12.182;2022-10-16T17:34:03;13.00;58.60
12006;DHT22;6062;47.294;12.182;2022-10-16T17:36:33;13.00;58.60